Time;durP1;ratioP1;P1;durP2;ratioP2;P2;SDS_P1;SDS_P2;PMS_P1;PMS_P2;Temp;Humidity;BMP_temperature;BMP_pressure;BME280_temperature;BME280_humidity;BME280_pressure;Samples;Min_cycle;Max_cycle;Signal;HPM_P1;HPM_P2
2022/07/17 00:00:50;;;;;;;7.57;2.23;;;;;;;;;;5093627;28;20632;-48
2022/07/17 00:03:17;;;;;;;4.13;1.97;;;;;;;;;;5093818;28;20646;-50
2022/07/17 00:05:44;;;;;;;6.33;1.93;;;;;;;;;;5093873;28;20256;-49
2022/07/17 00:08:11;;;;;;;2.67;1.43;;;;;;;;;;5093631;28;20227;-49
2022/07/17 00:10:37;;;;;;;3.60;1.80;;;;;;;;;;5094404;28;20202;-49
2022/07/17 00:13:03;;;;;;;24.90;22.20;;;;;;;;;;5094257;28;20244;-49
2022/07/17 00:15:31;;;;;;;9.70;3.23;;;;;;;;;;5093996;28;20195;-50
2022/07/17 00:17:57;;;;;;;3.43;1.93;;;;;;;;;;5094103;28;20199;-50
2022/07/17 00:20:26;;;;;;;4.10;1.50;;;;;;;;;;5093695;28;20274;-50
2022/07/17 00:22:52;;;;;;;4.53;1.83;;;;;;;;;;5093885;28;20273;-50
2022/07/17 00:25:19;;;;;;;4.53;1.53;;;;;;;;;;5070753;28;20569;-50
2022/07/17 00:27:45;;;;;;;4.80;2.07;;;;;;;;;;5073327;28;20223;-51
2022/07/17 00:30:12;;;;;;;3.70;1.70;;;;;;;;;;5073035;28;20196;-52
2022/07/17 00:32:39;;;;;;;2.20;1.80;;;;;;;;;;5073566;28;20223;-52
2022/07/17 00:35:07;;;;;;;4.23;1.70;;;;;;;;;;5073416;28;20629;-51
2022/07/17 00:37:37;;;;;;;3.00;1.60;;;;;;;;;;5072996;28;20196;-50
2022/07/17 00:42:55;;;;;;;11.33;2.67;;;;;;;;;;5072699;28;20203;-52
2022/07/17 00:45:24;;;;;;;6.87;2.20;;;;;;;;;;5072588;28;20200;-52
2022/07/17 00:47:54;;;;;;;4.37;2.10;;;;;;;;;;5072727;28;20671;-52
2022/07/17 00:50:20;;;;;;;3.87;1.63;;;;;;;;;;5072766;28;20210;-51
2022/07/17 00:52:46;;;;;;;2.97;1.73;;;;;;;;;;5072879;28;20250;-52
2022/07/17 00:55:13;;;;;;;2.80;1.87;;;;;;;;;;5072622;28;20199;-51
2022/07/17 00:57:40;;;;;;;4.23;1.60;;;;;;;;;;5072583;28;20613;-51
2022/07/17 01:00:10;;;;;;;4.53;1.60;;;;;;;;;;5072696;28;20227;-54
2022/07/17 01:02:37;;;;;;;5.53;1.90;;;;;;;;;;5071682;28;20243;-52
2022/07/17 01:05:05;;;;;;;5.43;2.10;;;;;;;;;;5072651;28;20203;-52
2022/07/17 01:07:31;;;;;;;3.80;1.40;;;;;;;;;;5072474;28;20211;-52
2022/07/17 01:09:57;;;;;;;4.40;2.23;;;;;;;;;;5072695;28;20196;-52
2022/07/17 01:12:24;;;;;;;3.47;1.93;;;;;;;;;;5070643;28;20561;-53
2022/07/17 01:14:50;;;;;;;3.13;1.97;;;;;;;;;;5070504;28;20293;-53
2022/07/17 01:17:16;;;;;;;3.97;1.87;;;;;;;;;;5071899;28;20190;-51
2022/07/17 01:19:42;;;;;;;3.20;1.80;;;;;;;;;;5072354;28;20561;-52
2022/07/17 01:22:09;;;;;;;2.97;1.90;;;;;;;;;;5072205;28;20334;-52
2022/07/17 01:24:39;;;;;;;5.40;1.90;;;;;;;;;;5072382;28;20681;-52
2022/07/17 01:27:05;;;;;;;4.37;2.07;;;;;;;;;;5072219;28;20203;-53
2022/07/17 01:29:31;;;;;;;7.73;2.17;;;;;;;;;;5072447;28;20234;-52
2022/07/17 01:31:57;;;;;;;4.93;1.77;;;;;;;;;;5072189;28;20235;-53
2022/07/17 01:34:23;;;;;;;2.43;1.80;;;;;;;;;;5071765;28;20203;-52
2022/07/17 01:36:49;;;;;;;1.93;1.77;;;;;;;;;;5072457;28;20196;-53
2022/07/17 01:42:10;;;;;;;3.87;1.93;;;;;;;;;;5072175;28;20269;-52
2022/07/17 01:44:36;;;;;;;23.83;21.23;;;;;;;;;;5072379;28;20237;-52
2022/07/17 01:47:03;;;;;;;4.70;2.27;;;;;;;;;;5072396;28;20216;-51
2022/07/17 01:49:29;;;;;;;3.57;2.13;;;;;;;;;;5071904;28;20191;-52
2022/07/17 01:51:59;;;;;;;4.27;1.60;;;;;;;;;;5072243;28;20210;-52
2022/07/17 01:54:26;;;;;;;3.93;1.90;;;;;;;;;;5072100;28;20211;-51
2022/07/17 01:56:52;;;;;;;4.97;1.97;;;;;;;;;;5072150;28;20205;-52
2022/07/17 01:59:18;;;;;;;3.63;2.00;;;;;;;;;;5071839;28;20231;-53
2022/07/17 02:01:44;;;;;;;4.00;2.10;;;;;;;;;;5071227;28;20264;-52
2022/07/17 02:04:10;;;;;;;4.83;2.10;;;;;;;;;;5071968;28;20684;-53
2022/07/17 02:06:36;;;;;;;5.30;1.80;;;;;;;;;;5071946;28;20199;-53
2022/07/17 02:09:02;;;;;;;2.40;1.90;;;;;;;;;;5072165;28;20203;-53
2022/07/17 02:11:29;;;;;;;2.70;1.90;;;;;;;;;;5071905;28;20740;-52
2022/07/17 02:13:55;;;;;;;3.37;2.10;;;;;;;;;;5074211;28;20689;-52
2022/07/17 02:16:21;;;;;;;6.73;2.60;;;;;;;;;;5075868;28;20195;-51
2022/07/17 02:18:47;;;;;;;5.83;2.20;;;;;;;;;;5075905;28;20657;-52
2022/07/17 02:21:13;;;;;;;6.57;2.37;;;;;;;;;;5075682;28;20243;-53
2022/07/17 02:23:39;;;;;;;6.23;2.67;;;;;;;;;;5075928;28;20278;-53
2022/07/17 02:26:05;;;;;;;4.90;2.33;;;;;;;;;;5075688;28;20677;-53
2022/07/17 02:28:33;;;;;;;4.90;2.53;;;;;;;;;;5075685;28;20191;-53
2022/07/17 02:30:58;;;;;;;4.43;2.07;;;;;;;;;;5075690;28;20203;-53
2022/07/17 02:33:24;;;;;;;3.70;1.83;;;;;;;;;;5075346;28;20395;-53
2022/07/17 02:35:50;;;;;;;4.63;2.30;;;;;;;;;;5075485;28;20294;-53
2022/07/17 02:38:16;;;;;;;8.23;2.40;;;;;;;;;;5075434;28;20598;-53
2022/07/17 02:40:42;;;;;;;5.50;2.23;;;;;;;;;;5075527;28;20234;-53
2022/07/17 02:43:09;;;;;;;4.23;2.27;;;;;;;;;;5074120;28;20195;-53
2022/07/17 02:45:36;;;;;;;4.87;2.30;;;;;;;;;;5075513;28;20283;-53
2022/07/17 02:48:02;;;;;;;5.80;2.43;;;;;;;;;;5075235;28;20210;-53
2022/07/17 02:50:28;;;;;;;3.60;1.90;;;;;;;;;;5074773;28;20200;-53
2022/07/17 02:52:54;;;;;;;6.63;2.07;;;;;;;;;;5075277;28;20205;-53
2022/07/17 02:55:20;;;;;;;3.50;2.10;;;;;;;;;;5075167;28;20655;-53
2022/07/17 02:57:47;;;;;;;5.90;2.53;;;;;;;;;;5075262;28;20188;-53
2022/07/17 03:00:15;;;;;;;4.80;2.53;;;;;;;;;;5074799;28;20728;-53
2022/07/17 03:02:42;;;;;;;3.70;2.23;;;;;;;;;;5074524;28;20210;-53
2022/07/17 03:05:09;;;;;;;2.67;2.03;;;;;;;;;;5074939;28;20567;-53
2022/07/17 03:07:35;;;;;;;2.77;2.13;;;;;;;;;;5074963;28;20210;-53
2022/07/17 03:10:01;;;;;;;3.20;2.37;;;;;;;;;;5075067;28;20242;-53
2022/07/17 03:12:27;;;;;;;3.67;2.10;;;;;;;;;;5074817;28;20227;-53
2022/07/17 03:14:53;;;;;;;4.37;2.37;;;;;;;;;;5074868;28;20199;-53
2022/07/17 03:17:19;;;;;;;4.50;2.53;;;;;;;;;;5074696;28;20207;-53
2022/07/17 03:19:46;;;;;;;5.20;2.53;;;;;;;;;;5074789;28;20270;-53
2022/07/17 03:22:12;;;;;;;3.33;2.07;;;;;;;;;;5074554;28;20242;-53
2022/07/17 03:24:39;;;;;;;2.97;2.10;;;;;;;;;;5073734;28;20214;-52
2022/07/17 03:27:05;;;;;;;7.23;2.57;;;;;;;;;;5074518;28;20196;-52
2022/07/17 03:29:31;;;;;;;4.43;2.00;;;;;;;;;;5074527;28;20318;-52
2022/07/17 03:31:57;;;;;;;3.30;2.00;;;;;;;;;;5074553;28;20202;-52
2022/07/17 03:34:23;;;;;;;5.67;2.30;;;;;;;;;;5074184;28;20241;-53
2022/07/17 03:36:51;;;;;;;4.87;2.53;;;;;;;;;;5074646;28;20200;-52
2022/07/17 03:39:17;;;;;;;5.00;3.00;;;;;;;;;;5074293;28;20716;-53
2022/07/17 03:41:43;;;;;;;4.60;2.87;;;;;;;;;;5074392;28;20208;-51
2022/07/17 03:44:08;;;;;;;6.53;2.50;;;;;;;;;;5074306;28;20199;-53
2022/07/17 03:46:35;;;;;;;6.07;2.63;;;;;;;;;;5074442;28;20191;-52
2022/07/17 03:49:00;;;;;;;4.23;2.20;;;;;;;;;;5074319;28;20196;-52
2022/07/17 03:51:27;;;;;;;2.97;2.17;;;;;;;;;;5074117;28;20200;-52
2022/07/17 03:53:54;;;;;;;6.57;2.40;;;;;;;;;;5074059;28;20203;-53
2022/07/17 03:56:20;;;;;;;4.63;2.40;;;;;;;;;;5073928;28;20206;-53
2022/07/17 03:58:46;;;;;;;4.03;2.30;;;;;;;;;;5073944;28;20589;-52
2022/07/17 04:01:12;;;;;;;4.47;2.20;;;;;;;;;;5073810;28;20281;-53
2022/07/17 04:03:38;;;;;;;5.30;2.40;;;;;;;;;;5073865;28;20192;-53
2022/07/17 04:06:04;;;;;;;3.87;2.00;;;;;;;;;;5073562;28;20603;-52
2022/07/17 04:08:31;;;;;;;3.77;2.00;;;;;;;;;;5073727;28;20191;-53
2022/07/17 04:10:58;;;;;;;6.30;2.20;;;;;;;;;;5073397;28;20196;-52
2022/07/17 04:13:24;;;;;;;7.17;2.33;;;;;;;;;;5073542;28;20211;-53
2022/07/17 04:15:55;;;;;;;4.47;2.53;;;;;;;;;;5073626;28;20200;-52
2022/07/17 04:18:22;;;;;;;3.67;2.20;;;;;;;;;;5073502;28;20243;-53
2022/07/17 04:20:48;;;;;;;7.77;2.60;;;;;;;;;;5073494;28;20199;-53
2022/07/17 04:23:14;;;;;;;5.57;2.53;;;;;;;;;;5073453;28;20196;-52
2022/07/17 04:25:40;;;;;;;5.80;2.37;;;;;;;;;;5073419;28;20241;-53
2022/07/17 04:28:08;;;;;;;3.67;2.10;;;;;;;;;;5073361;28;20605;-53
2022/07/17 04:30:35;;;;;;;5.90;2.67;;;;;;;;;;5073384;28;20261;-53
2022/07/17 04:33:01;;;;;;;5.97;2.27;;;;;;;;;;5073413;28;20211;-52
2022/07/17 04:35:27;;;;;;;4.97;2.30;;;;;;;;;;5073114;28;20203;-53
2022/07/17 04:37:53;;;;;;;4.10;2.67;;;;;;;;;;5072897;28;20658;-53
2022/07/17 04:40:19;;;;;;;5.27;2.20;;;;;;;;;;5073048;28;20192;-53
2022/07/17 04:42:45;;;;;;;5.17;2.40;;;;;;;;;;5073200;28;20200;-53
2022/07/17 04:45:16;;;;;;;4.47;2.50;;;;;;;;;;5072954;28;20237;-53
2022/07/17 04:47:42;;;;;;;6.23;2.50;;;;;;;;;;5073096;28;20199;-53
2022/07/17 04:50:08;;;;;;;3.77;2.30;;;;;;;;;;5072959;28;20195;-52
2022/07/17 04:52:34;;;;;;;6.23;3.10;;;;;;;;;;5072807;28;20196;-53
2022/07/17 04:55:00;;;;;;;3.50;2.40;;;;;;;;;;5071994;28;20199;-53
2022/07/17 04:57:26;;;;;;;5.73;2.97;;;;;;;;;;5072629;28;20662;-53
2022/07/17 04:59:53;;;;;;;5.87;2.70;;;;;;;;;;5072682;28;20262;-53
2022/07/17 05:02:20;;;;;;;4.03;2.37;;;;;;;;;;5072791;28;20349;-53
2022/07/17 05:04:47;;;;;;;4.60;2.50;;;;;;;;;;5072843;28;20215;-52
2022/07/17 05:07:13;;;;;;;5.27;3.00;;;;;;;;;;5072667;28;20195;-53
2022/07/17 05:09:39;;;;;;;5.30;2.53;;;;;;;;;;5072662;28;20192;-53
2022/07/17 05:12:05;;;;;;;4.53;2.50;;;;;;;;;;5072627;28;20763;-53
2022/07/17 05:14:31;;;;;;;5.13;2.67;;;;;;;;;;5072581;28;20260;-53
2022/07/17 05:16:57;;;;;;;4.60;2.67;;;;;;;;;;5072089;28;20199;-52
2022/07/17 05:19:25;;;;;;;5.10;2.50;;;;;;;;;;5072163;28;20246;-52
2022/07/17 05:21:51;;;;;;;6.07;2.80;;;;;;;;;;5072157;28;20243;-52
2022/07/17 05:24:17;;;;;;;8.93;3.23;;;;;;;;;;5072342;28;20264;-54
2022/07/17 05:26:43;;;;;;;8.67;3.20;;;;;;;;;;5072120;28;20719;-52
2022/07/17 05:29:09;;;;;;;9.77;2.97;;;;;;;;;;5072169;28;20265;-53
2022/07/17 05:31:35;;;;;;;6.90;3.13;;;;;;;;;;5072236;28;20208;-53
2022/07/17 05:34:01;;;;;;;4.37;2.53;;;;;;;;;;5072285;28;20203;-53
2022/07/17 05:36:28;;;;;;;5.57;3.00;;;;;;;;;;5072119;28;20200;-52
2022/07/17 05:38:54;;;;;;;6.87;2.90;;;;;;;;;;5072057;28;20693;-52
2022/07/17 05:41:20;;;;;;;5.43;2.90;;;;;;;;;;5071969;28;20210;-53
2022/07/17 05:43:46;;;;;;;4.10;2.77;;;;;;;;;;5072282;28;20195;-52
2022/07/17 05:46:12;;;;;;;6.47;3.10;;;;;;;;;;5071997;28;20650;-53
2022/07/17 05:48:38;;;;;;;4.43;2.97;;;;;;;;;;5071533;28;20198;-53
2022/07/17 05:51:04;;;;;;;3.87;2.80;;;;;;;;;;5072100;28;20199;-57
2022/07/17 05:53:31;;;;;;;7.57;3.00;;;;;;;;;;5071731;28;20558;-52
2022/07/17 05:55:57;;;;;;;7.27;3.30;;;;;;;;;;5071865;28;20286;-52
2022/07/17 05:58:23;;;;;;;5.03;2.70;;;;;;;;;;5071689;28;20231;-52
2022/07/17 06:00:49;;;;;;;7.23;2.93;;;;;;;;;;5071989;28;20314;-52
2022/07/17 06:03:15;;;;;;;5.73;2.80;;;;;;;;;;5071821;28;20670;-52
2022/07/17 06:05:41;;;;;;;7.37;2.80;;;;;;;;;;5071787;28;20196;-52
2022/07/17 06:08:07;;;;;;;5.17;3.00;;;;;;;;;;5071799;28;20202;-51
2022/07/17 06:10:35;;;;;;;6.13;2.83;;;;;;;;;;5071665;28;20559;-51
2022/07/17 06:13:01;;;;;;;6.57;3.00;;;;;;;;;;5071822;28;20227;-52
2022/07/17 06:15:27;;;;;;;7.00;2.53;;;;;;;;;;5071640;28;20207;-52
2022/07/17 06:17:53;;;;;;;7.40;2.80;;;;;;;;;;5071664;28;20226;-52
2022/07/17 06:20:19;;;;;;;2.53;2.30;;;;;;;;;;5071506;28;20654;-51
2022/07/17 06:22:46;;;;;;;5.80;3.07;;;;;;;;;;5071036;28;20288;-52
2022/07/17 06:25:12;;;;;;;4.67;2.57;;;;;;;;;;5071763;28;20227;-52
2022/07/17 06:27:40;;;;;;;5.50;3.40;;;;;;;;;;5071558;28;20567;-51
2022/07/17 06:30:07;;;;;;;12.63;3.30;;;;;;;;;;5071703;28;20226;-52
2022/07/17 06:32:33;;;;;;;8.33;2.73;;;;;;;;;;5071498;28;20192;-52
2022/07/17 06:34:59;;;;;;;6.60;2.60;;;;;;;;;;5071302;28;20206;-51
2022/07/17 06:37:25;;;;;;;6.80;2.40;;;;;;;;;;5071371;28;20615;-51
2022/07/17 06:39:51;;;;;;;5.53;3.00;;;;;;;;;;5071421;28;20709;-51
2022/07/17 06:42:17;;;;;;;4.50;2.57;;;;;;;;;;5071217;28;20203;-52
2022/07/17 06:44:45;;;;;;;7.77;2.83;;;;;;;;;;5071506;28;20207;-52
2022/07/17 06:47:11;;;;;;;9.90;3.00;;;;;;;;;;5070871;28;20200;-53
2022/07/17 06:49:37;;;;;;;6.80;2.63;;;;;;;;;;5070912;28;20238;-53
2022/07/17 06:52:03;;;;;;;6.10;2.57;;;;;;;;;;5071441;28;20196;-52
2022/07/17 06:54:29;;;;;;;4.87;2.50;;;;;;;;;;5071025;28;20726;-51
2022/07/17 06:56:55;;;;;;;4.10;2.13;;;;;;;;;;5071336;28;20207;-52
2022/07/17 06:59:21;;;;;;;4.03;2.50;;;;;;;;;;5070836;28;20231;-52
2022/07/17 07:01:48;;;;;;;4.93;2.03;;;;;;;;;;5074419;28;20199;-52
2022/07/17 07:04:14;;;;;;;6.10;2.10;;;;;;;;;;5074743;28;20561;-51
2022/07/17 07:06:41;;;;;;;4.27;2.00;;;;;;;;;;5074739;28;20274;-51
2022/07/17 07:09:07;;;;;;;7.10;2.27;;;;;;;;;;5074125;28;20199;-52
2022/07/17 07:11:33;;;;;;;6.00;2.17;;;;;;;;;;5074278;28;20219;-51
2022/07/17 07:13:59;;;;;;;4.97;2.03;;;;;;;;;;5074727;28;20650;-52
2022/07/17 07:16:25;;;;;;;5.10;1.93;;;;;;;;;;5074421;28;20234;-52
2022/07/17 07:18:53;;;;;;;5.17;1.97;;;;;;;;;;5074210;28;20227;-52
2022/07/17 07:21:19;;;;;;;4.60;1.90;;;;;;;;;;5074480;28;20239;-52
2022/07/17 07:23:45;;;;;;;6.30;2.07;;;;;;;;;;5074666;28;20203;-52
2022/07/17 07:26:11;;;;;;;5.40;1.87;;;;;;;;;;5074586;28;20228;-53
2022/07/17 07:28:37;;;;;;;5.67;1.90;;;;;;;;;;5074352;28;20195;-52
2022/07/17 07:31:04;;;;;;;4.63;2.10;;;;;;;;;;5074621;28;20202;-52
2022/07/17 07:33:30;;;;;;;8.67;2.20;;;;;;;;;;5074421;28;20206;-51
2022/07/17 07:35:57;;;;;;;4.60;2.20;;;;;;;;;;5074410;28;20203;-52
2022/07/17 07:38:23;;;;;;;4.10;2.17;;;;;;;;;;5074247;28;20223;-52
2022/07/17 07:40:49;;;;;;;3.40;1.70;;;;;;;;;;5074381;28;20202;-52
2022/07/17 07:43:15;;;;;;;4.70;2.20;;;;;;;;;;5074375;28;20214;-52
2022/07/17 07:45:41;;;;;;;7.83;1.97;;;;;;;;;;5074121;28;20295;-52
2022/07/17 07:48:07;;;;;;;6.23;1.73;;;;;;;;;;5074184;28;20250;-53
2022/07/17 07:50:33;;;;;;;7.20;2.20;;;;;;;;;;5074098;28;20200;-52
2022/07/17 07:53:01;;;;;;;4.60;1.77;;;;;;;;;;5074007;28;20198;-53
2022/07/17 07:55:27;;;;;;;3.90;1.60;;;;;;;;;;5073903;28;20206;-54
2022/07/17 07:58:02;;;;;;;6.33;2.00;;;;;;;;;;5073993;28;20195;-53
2022/07/17 08:00:28;;;;;;;5.83;2.10;;;;;;;;;;5073849;28;20210;-53
2022/07/17 08:02:53;;;;;;;3.90;1.80;;;;;;;;;;5073838;28;20206;-54
2022/07/17 08:05:19;;;;;;;4.43;1.80;;;;;;;;;;5073867;28;20569;-54
2022/07/17 08:07:46;;;;;;;4.73;1.73;;;;;;;;;;5073586;28;20202;-53
2022/07/17 08:10:13;;;;;;;5.70;2.03;;;;;;;;;;5073512;28;20195;-54
2022/07/17 08:12:39;;;;;;;6.87;1.90;;;;;;;;;;5072500;28;20289;-53
2022/07/17 08:15:05;;;;;;;4.07;1.80;;;;;;;;;;5073510;28;20257;-52
2022/07/17 08:17:31;;;;;;;3.50;1.80;;;;;;;;;;5073542;28;20206;-53
2022/07/17 08:19:57;;;;;;;7.23;1.67;;;;;;;;;;5073502;28;20230;-53
2022/07/17 08:22:23;;;;;;;4.33;1.60;;;;;;;;;;5073338;28;20235;-53
2022/07/17 08:24:49;;;;;;;3.30;1.73;;;;;;;;;;5073401;28;20203;-50
2022/07/17 08:27:17;;;;;;;4.40;1.80;;;;;;;;;;5073458;28;20184;-51
2022/07/17 08:29:42;;;;;;;7.17;2.20;;;;;;;;;;5073326;28;20615;-51
2022/07/17 08:32:08;;;;;;;4.60;1.70;;;;;;;;;;5072594;28;20196;-52
2022/07/17 08:34:34;;;;;;;5.07;1.67;;;;;;;;;;5073272;28;20600;-50
2022/07/17 08:37:01;;;;;;;6.73;2.10;;;;;;;;;;5073299;28;20199;-50
2022/07/17 08:39:27;;;;;;;5.70;2.20;;;;;;;;;;5072779;28;20688;-51
2022/07/17 08:41:53;;;;;;;4.23;1.60;;;;;;;;;;5072960;28;20199;-51
2022/07/17 08:44:20;;;;;;;4.47;1.50;;;;;;;;;;5073183;28;20548;-51
2022/07/17 08:46:47;;;;;;;5.53;1.90;;;;;;;;;;5072596;28;20202;-52
2022/07/17 08:49:14;;;;;;;3.60;1.37;;;;;;;;;;5072196;28;20720;-51
2022/07/17 08:51:40;;;;;;;4.60;1.93;;;;;;;;;;5072022;28;20253;-52
2022/07/17 08:54:06;;;;;;;3.53;1.53;;;;;;;;;;5072348;28;20704;-52
2022/07/17 08:56:32;;;;;;;4.90;1.57;;;;;;;;;;5072661;28;20196;-52
2022/07/17 08:58:58;;;;;;;4.23;1.30;;;;;;;;;;5072484;28;20282;-51
2022/07/17 09:01:26;;;;;;;6.07;2.07;;;;;;;;;;5072665;28;20219;-52
2022/07/17 09:03:57;;;;;;;4.53;1.60;;;;;;;;;;5072704;28;20257;-52
2022/07/17 09:06:24;;;;;;;3.43;1.50;;;;;;;;;;5072499;28;20612;-51
2022/07/17 09:08:59;;;;;;;4.60;1.80;;;;;;;;;;5072542;28;20195;-52
2022/07/17 09:11:27;;;;;;;4.40;1.47;;;;;;;;;;5072487;28;20346;-51
2022/07/17 09:13:53;;;;;;;3.37;1.30;;;;;;;;;;5072721;28;20253;-52
2022/07/17 09:16:19;;;;;;;4.30;2.00;;;;;;;;;;5072594;28;20241;-52
2022/07/17 09:18:49;;;;;;;7.43;1.43;;;;;;;;;;5072322;28;20641;-52
2022/07/17 09:21:18;;;;;;;6.80;1.70;;;;;;;;;;5072445;28;20251;-52
2022/07/17 09:23:44;;;;;;;4.53;1.60;;;;;;;;;;5071756;28;20196;-52
2022/07/17 09:26:10;;;;;;;6.00;1.83;;;;;;;;;;5072193;28;20211;-53
2022/07/17 09:28:44;;;;;;;3.93;1.63;;;;;;;;;;5072186;28;20250;-52
2022/07/17 09:31:10;;;;;;;5.10;1.90;;;;;;;;;;5072320;28;20673;-51
2022/07/17 09:33:36;;;;;;;6.10;1.80;;;;;;;;;;5071951;28;20692;-52
2022/07/17 09:36:08;;;;;;;5.53;1.60;;;;;;;;;;5071925;28;20227;-52
2022/07/17 09:38:35;;;;;;;3.97;1.57;;;;;;;;;;5072205;28;20651;-52
2022/07/17 09:41:15;;;;;;;3.97;1.67;;;;;;;;;;5071734;28;20202;-52
2022/07/17 09:43:44;;;;;;;5.13;1.50;;;;;;;;;;5072007;28;20283;-51
2022/07/17 09:46:12;;;;;;;3.30;1.50;;;;;;;;;;5072003;28;20206;-51
2022/07/17 09:48:41;;;;;;;3.30;1.33;;;;;;;;;;5071611;28;20225;-54
2022/07/17 09:51:09;;;;;;;4.33;1.60;;;;;;;;;;5072115;28;20547;-52
2022/07/17 09:53:36;;;;;;;8.10;5.20;;;;;;;;;;5072202;28;20197;-52
2022/07/17 09:56:03;;;;;;;5.43;1.90;;;;;;;;;;5072299;28;20660;-51
2022/07/17 09:58:31;;;;;;;6.50;1.70;;;;;;;;;;5072183;28;20692;-51
2022/07/17 10:00:58;;;;;;;4.27;1.60;;;;;;;;;;5069545;28;20221;-52
2022/07/17 10:03:25;;;;;;;4.43;1.53;;;;;;;;;;5069894;28;20279;-52
2022/07/17 10:05:51;;;;;;;4.57;1.80;;;;;;;;;;5071866;28;20668;-52
2022/07/17 10:08:19;;;;;;;4.77;1.90;;;;;;;;;;5071956;28;20230;-52
2022/07/17 10:10:45;;;;;;;4.03;1.53;;;;;;;;;;5071459;28;20328;-51
2022/07/17 10:13:12;;;;;;;2.90;1.60;;;;;;;;;;5071300;28;20203;-52
2022/07/17 10:15:38;;;;;;;3.17;1.47;;;;;;;;;;5070537;28;20199;-52
2022/07/17 10:18:05;;;;;;;5.80;1.80;;;;;;;;;;5071632;28;20195;-52
2022/07/17 10:20:31;;;;;;;4.23;1.70;;;;;;;;;;5071552;28;20230;-52
2022/07/17 10:22:57;;;;;;;3.40;1.57;;;;;;;;;;5071726;28;20255;-52
2022/07/17 10:25:25;;;;;;;4.63;1.87;;;;;;;;;;5071742;28;20219;-53
2022/07/17 10:27:52;;;;;;;6.23;2.50;;;;;;;;;;5071548;28;20222;-52
2022/07/17 10:30:26;;;;;;;4.60;1.90;;;;;;;;;;5070013;28;20188;-52
2022/07/17 10:32:52;;;;;;;3.37;1.40;;;;;;;;;;5067739;28;20196;-53
2022/07/17 10:35:19;;;;;;;3.80;1.60;;;;;;;;;;5074007;28;20200;-53
2022/07/17 10:37:45;;;;;;;3.97;1.57;;;;;;;;;;5075147;28;20895;-52
2022/07/17 10:40:12;;;;;;;2.87;1.50;;;;;;;;;;5075228;28;20257;-53
2022/07/17 10:42:41;;;;;;;4.70;1.90;;;;;;;;;;5075038;28;20204;-53
2022/07/17 10:45:08;;;;;;;3.60;1.57;;;;;;;;;;5075165;28;20204;-53
2022/07/17 10:47:42;;;;;;;3.43;1.87;;;;;;;;;;5075138;28;20193;-52
2022/07/17 10:50:08;;;;;;;5.43;1.40;;;;;;;;;;5075141;28;20209;-51
2022/07/17 10:52:34;;;;;;;5.90;1.87;;;;;;;;;;5074917;28;20203;-52
2022/07/17 10:55:00;;;;;;;3.10;1.60;;;;;;;;;;5075173;28;20196;-51
2022/07/17 10:57:26;;;;;;;4.83;1.87;;;;;;;;;;5074934;28;20246;-53
2022/07/17 10:59:54;;;;;;;3.67;1.60;;;;;;;;;;5074881;28;20224;-50
2022/07/17 11:02:27;;;;;;;5.97;2.13;;;;;;;;;;5075102;28;20203;-50
2022/07/17 11:04:53;;;;;;;3.70;2.00;;;;;;;;;;5074968;28;20201;-47
2022/07/17 11:07:19;;;;;;;4.80;1.60;;;;;;;;;;5074886;28;20205;-51
2022/07/17 11:09:47;;;;;;;4.30;1.40;;;;;;;;;;5074755;28;20284;-51
2022/07/17 11:12:13;;;;;;;4.20;1.60;;;;;;;;;;5074751;28;20208;-51
2022/07/17 11:14:39;;;;;;;3.23;1.60;;;;;;;;;;5074441;28;20287;-51
2022/07/17 11:17:07;;;;;;;3.67;1.47;;;;;;;;;;5074910;28;20566;-51
2022/07/17 11:19:33;;;;;;;4.13;1.40;;;;;;;;;;5081481;28;20230;-53
2022/07/17 11:22:01;;;;;;;4.67;1.50;;;;;;;;;;5094316;28;20237;-52
2022/07/17 11:24:35;;;;;;;3.37;1.40;;;;;;;;;;5094792;28;20296;-52
2022/07/17 11:27:01;;;;;;;2.90;1.57;;;;;;;;;;5095227;28;20653;-52
2022/07/17 11:29:27;;;;;;;3.97;1.57;;;;;;;;;;5094702;28;20231;-53
2022/07/17 11:31:55;;;;;;;5.37;1.60;;;;;;;;;;5094942;28;20217;-53
2022/07/17 11:34:24;;;;;;;4.23;1.60;;;;;;;;;;5094953;28;20205;-52
2022/07/17 11:36:50;;;;;;;2.90;1.37;;;;;;;;;;5094881;28;20206;-53
2022/07/17 11:39:18;;;;;;;3.90;1.27;;;;;;;;;;5094840;28;20295;-52
2022/07/17 11:41:46;;;;;;;2.63;1.27;;;;;;;;;;5094692;28;20285;-51
2022/07/17 11:44:13;;;;;;;2.70;1.20;;;;;;;;;;5094799;28;20653;-51
2022/07/17 11:46:40;;;;;;;6.70;1.60;;;;;;;;;;5093644;28;20215;-51
2022/07/17 11:49:06;;;;;;;7.90;6.13;;;;;;;;;;5094701;28;20553;-50
2022/07/17 11:51:37;;;;;;;5.50;1.50;;;;;;;;;;5094416;28;20287;-51
2022/07/17 11:54:04;;;;;;;3.70;1.40;;;;;;;;;;5094447;28;20204;-51
2022/07/17 11:56:30;;;;;;;4.93;1.43;;;;;;;;;;5094485;28;20290;-52
2022/07/17 11:58:56;;;;;;;4.10;1.57;;;;;;;;;;5094380;28;20325;-52
2022/07/17 12:01:22;;;;;;;4.47;1.63;;;;;;;;;;5094452;28;20619;-52
2022/07/17 12:03:56;;;;;;;4.07;1.40;;;;;;;;;;5094652;28;20214;-52
2022/07/17 12:06:25;;;;;;;5.37;1.70;;;;;;;;;;5092020;28;20315;-52
2022/07/17 12:08:52;;;;;;;3.67;1.40;;;;;;;;;;5092324;28;20237;-51
2022/07/17 12:11:19;;;;;;;2.80;1.50;;;;;;;;;;5090264;28;20209;-51
2022/07/17 12:13:46;;;;;;;3.83;1.40;;;;;;;;;;5093482;28;20284;-52
2022/07/17 12:16:23;;;;;;;2.83;1.60;;;;;;;;;;5094078;28;20202;-53
2022/07/17 12:19:03;;;;;;;2.50;1.30;;;;;;;;;;5093922;28;20317;-53
2022/07/17 12:21:30;;;;;;;2.73;1.57;;;;;;;;;;5093293;28;20245;-53
2022/07/17 12:23:58;;;;;;;3.20;1.67;;;;;;;;;;5093727;28;20609;-53
2022/07/17 12:26:24;;;;;;;3.57;1.40;;;;;;;;;;5093377;28;20294;-52
2022/07/17 12:28:50;;;;;;;1.63;1.20;;;;;;;;;;5092960;28;20639;-52
2022/07/17 12:31:16;;;;;;;2.60;1.33;;;;;;;;;;5093127;28;20206;-52
2022/07/17 12:33:42;;;;;;;2.40;1.47;;;;;;;;;;5093123;28;20219;-52
2022/07/17 12:36:08;;;;;;;2.63;1.60;;;;;;;;;;5093226;28;20251;-53
2022/07/17 12:38:35;;;;;;;2.80;1.40;;;;;;;;;;5091499;28;20720;-52
2022/07/17 12:41:02;;;;;;;2.77;1.30;;;;;;;;;;5093276;28;20205;-52
2022/07/17 12:43:28;;;;;;;2.37;1.30;;;;;;;;;;5093212;28;20214;-52
2022/07/17 12:45:54;;;;;;;2.80;1.37;;;;;;;;;;5093300;28;20691;-52
2022/07/17 12:48:20;;;;;;;2.50;1.60;;;;;;;;;;5092870;28;20191;-53
2022/07/17 12:50:46;;;;;;;2.60;1.27;;;;;;;;;;5093015;28;20191;-53
2022/07/17 12:53:13;;;;;;;3.33;1.47;;;;;;;;;;5093118;28;20204;-53
2022/07/17 12:55:39;;;;;;;4.07;1.40;;;;;;;;;;5092870;28;20196;-53
2022/07/17 12:58:06;;;;;;;3.00;1.40;;;;;;;;;;5093112;28;20200;-52
2022/07/17 13:00:32;;;;;;;2.23;1.30;;;;;;;;;;5092771;28;20272;-53
2022/07/17 13:02:58;;;;;;;2.20;1.50;;;;;;;;;;5092455;28;20223;-53
2022/07/17 13:05:24;;;;;;;1.50;1.10;;;;;;;;;;5092656;28;20197;-52
2022/07/17 13:07:50;;;;;;;4.33;1.73;;;;;;;;;;5092870;28;20196;-52
2022/07/17 13:10:17;;;;;;;2.30;1.30;;;;;;;;;;5092707;28;20220;-52
2022/07/17 13:12:43;;;;;;;1.77;1.10;;;;;;;;;;5092663;28;20199;-52
2022/07/17 13:15:13;;;;;;;2.83;1.60;;;;;;;;;;5092704;28;20250;-51
2022/07/17 13:17:39;;;;;;;3.93;1.50;;;;;;;;;;5091880;28;20200;-53
2022/07/17 13:20:06;;;;;;;4.87;1.53;;;;;;;;;;5092613;28;20231;-52
2022/07/17 13:22:32;;;;;;;1.97;1.27;;;;;;;;;;5092460;28;20238;-53
2022/07/17 13:24:58;;;;;;;2.43;1.27;;;;;;;;;;5092600;28;20194;-53
2022/07/17 13:27:24;;;;;;;2.43;1.17;;;;;;;;;;5092232;28;20557;-53
2022/07/17 13:29:50;;;;;;;4.50;1.70;;;;;;;;;;5092560;28;20199;-52
2022/07/17 13:32:17;;;;;;;2.63;1.13;;;;;;;;;;5092443;28;20202;-52
2022/07/17 13:34:43;;;;;;;2.33;1.60;;;;;;;;;;5092186;28;20616;-53
2022/07/17 13:37:09;;;;;;;3.10;1.57;;;;;;;;;;5092202;28;20198;-53
2022/07/17 13:39:35;;;;;;;5.03;1.60;;;;;;;;;;5092153;28;20223;-52
2022/07/17 13:42:02;;;;;;;3.87;1.90;;;;;;;;;;5092110;28;20202;-53
2022/07/17 13:44:28;;;;;;;3.53;1.50;;;;;;;;;;5092323;28;20199;-52
2022/07/17 13:46:54;;;;;;;2.03;1.40;;;;;;;;;;5092407;28;20265;-53
2022/07/17 13:49:21;;;;;;;4.67;1.30;;;;;;;;;;5092546;28;20199;-53
2022/07/17 13:51:47;;;;;;;2.67;1.33;;;;;;;;;;5092441;28;20236;-53
2022/07/17 13:57:13;;;;;;;5.93;4.90;;;;;;;;;;5063142;28;20581;-52
2022/07/17 13:59:39;;;;;;;2.73;1.93;;;;;;;;;;5091516;28;20223;-53
2022/07/17 14:02:06;;;;;;;3.77;1.70;;;;;;;;;;5091471;28;20203;-53
2022/07/17 14:04:34;;;;;;;2.67;1.23;;;;;;;;;;5092084;28;20574;-52
2022/07/17 14:07:00;;;;;;;2.77;1.80;;;;;;;;;;5092191;28;20658;-53
2022/07/17 14:09:26;;;;;;;5.93;1.37;;;;;;;;;;5093568;28;20184;-53
2022/07/17 14:11:53;;;;;;;4.10;1.57;;;;;;;;;;5096459;28;20670;-53
2022/07/17 14:14:20;;;;;;;2.70;1.50;;;;;;;;;;5096345;28;20199;-53
2022/07/17 14:16:46;;;;;;;3.07;1.40;;;;;;;;;;5096163;28;20231;-52
2022/07/17 14:19:12;;;;;;;2.83;1.40;;;;;;;;;;5096147;28;20267;-52
2022/07/17 14:21:39;;;;;;;2.50;1.23;;;;;;;;;;5095783;28;20240;-52
2022/07/17 14:24:06;;;;;;;2.00;1.23;;;;;;;;;;5096094;28;20206;-53
2022/07/17 14:26:32;;;;;;;3.87;1.90;;;;;;;;;;5096076;28;20244;-53
2022/07/17 14:28:58;;;;;;;3.83;1.70;;;;;;;;;;5095977;28;20192;-52
2022/07/17 14:31:24;;;;;;;2.53;1.50;;;;;;;;;;5095962;28;20411;-53
2022/07/17 14:33:50;;;;;;;2.80;1.67;;;;;;;;;;5095780;28;20197;-53
2022/07/17 14:36:16;;;;;;;2.40;1.20;;;;;;;;;;5095914;28;20251;-52
2022/07/17 14:38:43;;;;;;;4.30;1.50;;;;;;;;;;5095283;28;20252;-53
2022/07/17 14:41:09;;;;;;;4.80;1.87;;;;;;;;;;5095821;28;20203;-51
2022/07/17 14:43:35;;;;;;;3.60;1.50;;;;;;;;;;5095687;28;20192;-52
2022/07/17 14:46:01;;;;;;;3.27;1.30;;;;;;;;;;5095562;28;20196;-53
2022/07/17 14:48:27;;;;;;;3.57;1.60;;;;;;;;;;5095634;28;20196;-52